createdAt,value
2019-05-15T00:01:32.154Z,56.49
2019-05-15T00:04:01.691Z,56.69
2019-05-15T00:06:32.880Z,56.84
2019-05-15T00:09:02.568Z,57.07
2019-05-15T00:11:32.196Z,57.30
2019-05-15T00:14:01.833Z,57.26
2019-05-15T00:16:31.492Z,57.34
2019-05-15T00:19:01.200Z,57.41
2019-05-15T00:21:30.820Z,57.33
2019-05-15T00:24:00.480Z,57.46
2019-05-15T00:26:30.720Z,57.66
2019-05-15T00:29:11.539Z,57.89
2019-05-15T00:31:32.157Z,58.16
2019-05-15T00:34:01.887Z,58.29
2019-05-15T00:36:31.676Z,58.38
2019-05-15T00:39:01.608Z,58.47
2019-05-15T00:41:31.471Z,58.77
2019-05-15T00:44:01.148Z,58.95
2019-05-15T00:46:30.802Z,59.03
2019-05-15T00:49:01.187Z,59.20
2019-05-15T00:51:30.811Z,59.31
2019-05-15T00:54:01.499Z,59.52
2019-05-15T00:56:31.123Z,59.64
2019-05-15T00:59:00.758Z,59.72
2019-05-15T01:01:30.409Z,59.70
2019-05-15T01:04:00.072Z,59.66
2019-05-15T01:06:30.041Z,59.77
2019-05-15T01:08:59.725Z,59.92
2019-05-15T01:11:29.347Z,60.04
2019-05-15T01:13:58.958Z,60.29
2019-05-15T01:16:28.644Z,60.41
2019-05-15T01:18:58.687Z,60.65
2019-05-15T01:21:28.465Z,60.84
2019-05-15T01:23:58.936Z,60.90
2019-05-15T01:26:28.703Z,60.88
2019-05-15T01:28:58.593Z,61.04
2019-05-15T01:31:28.650Z,61.36
2019-05-15T01:33:58.506Z,61.53
2019-05-15T01:36:28.749Z,61.58
2019-05-15T01:38:58.726Z,61.56
2019-05-15T01:41:28.619Z,61.61
2019-05-15T01:43:59.067Z,61.82
2019-05-15T01:46:28.747Z,62.06
2019-05-15T01:48:58.690Z,62.05
2019-05-15T01:51:28.733Z,61.97
2019-05-15T01:53:58.566Z,62.03
2019-05-15T01:56:29.285Z,62.16
2019-05-15T01:58:59.535Z,62.40
2019-05-15T02:01:29.492Z,62.70
2019-05-15T02:03:59.111Z,62.92
2019-05-15T02:06:28.736Z,62.99
2019-05-15T02:08:59.311Z,63.28
2019-05-15T02:11:29.043Z,63.30
2019-05-15T02:13:58.760Z,63.30
2019-05-15T02:16:28.818Z,63.42
2019-05-15T02:18:58.532Z,63.56
2019-05-15T02:21:28.803Z,63.79
2019-05-15T02:23:59.617Z,64.04
2019-05-15T02:26:29.236Z,64.23
2019-05-15T02:28:58.855Z,64.34
2019-05-15T02:31:30.221Z,64.41
2019-05-15T02:34:00.227Z,64.54
2019-05-15T02:36:29.828Z,64.65
2019-05-15T02:39:00.251Z,64.77
2019-05-15T02:41:30.213Z,64.98
2019-05-15T02:43:59.907Z,65.23
2019-05-15T02:46:30.215Z,65.60
2019-05-15T02:49:00.135Z,65.97
2019-05-15T02:51:30.179Z,66.21
2019-05-15T02:53:59.965Z,66.35
2019-05-15T02:56:30.158Z,66.58
2019-05-15T02:59:00.171Z,66.63
2019-05-15T03:01:29.916Z,66.79
2019-05-15T03:03:59.758Z,67.16
2019-05-15T03:06:30.071Z,67.37
2019-05-15T03:08:59.853Z,67.28
2019-05-15T03:11:29.775Z,67.29
2019-05-15T03:13:59.506Z,67.43
2019-05-15T03:16:30.474Z,67.19
2019-05-15T03:19:00.291Z,67.27
2019-05-15T03:21:31.004Z,67.34
2019-05-15T03:24:00.760Z,67.45
2019-05-15T03:26:30.385Z,67.53
2019-05-15T03:29:00.001Z,67.52
2019-05-15T03:31:49.380Z,67.48
2019-05-15T03:34:03.315Z,67.41
2019-05-15T03:36:32.817Z,67.34
2019-05-15T03:39:02.548Z,67.40
2019-05-15T03:41:32.256Z,67.13
2019-05-15T03:44:01.859Z,67.18
2019-05-15T03:46:31.523Z,67.08
2019-05-15T03:49:01.144Z,67.10
2019-05-15T03:51:30.775Z,66.96
2019-05-15T03:54:00.644Z,67.11
2019-05-15T03:56:30.342Z,67.06
2019-05-15T03:59:00.018Z,66.71
2019-05-15T04:01:38.461Z,66.14
2019-05-15T04:04:01.887Z,65.99
2019-05-15T04:06:31.576Z,65.79
2019-05-15T04:09:01.308Z,65.35
2019-05-15T04:11:30.925Z,65.05
2019-05-15T04:14:00.546Z,64.81
2019-05-15T04:16:30.412Z,64.67
2019-05-15T04:19:00.030Z,64.49
2019-05-15T04:21:30.481Z,64.13
2019-05-15T04:24:00.626Z,63.80
2019-05-15T04:26:33.956Z,63.55
2019-05-15T04:29:03.578Z,63.69
2019-05-15T04:31:50.225Z,63.45
2019-05-15T04:34:05.036Z,63.53
2019-05-15T04:36:35.021Z,63.45
2019-05-15T04:39:09.868Z,63.63
2019-05-15T04:41:39.552Z,63.75
2019-05-15T04:44:10.274Z,63.93
2019-05-15T04:46:40.354Z,64.24
2019-05-15T04:49:11.771Z,64.38
2019-05-15T04:51:41.568Z,64.74
2019-05-15T04:54:11.791Z,64.98
2019-05-15T04:56:42.176Z,65.26
2019-05-15T04:59:11.800Z,65.53
2019-05-15T05:01:41.545Z,65.81
2019-05-15T05:04:11.660Z,66.01
2019-05-15T05:06:41.977Z,66.30
2019-05-15T05:09:12.582Z,66.43
2019-05-15T05:11:42.265Z,66.69
2019-05-15T05:14:11.884Z,66.87
2019-05-15T05:16:42.610Z,67.05
2019-05-15T05:19:12.236Z,67.33
2019-05-15T05:21:42.379Z,67.65
2019-05-15T05:24:12.311Z,67.82
2019-05-15T05:26:42.525Z,68.10
2019-05-15T05:29:13.121Z,68.41
2019-05-15T05:31:42.627Z,68.76
2019-05-15T05:34:12.823Z,68.82
2019-05-15T05:36:42.506Z,69.00
2019-05-15T05:39:39.667Z,68.95
2019-05-15T05:42:09.303Z,69.11
2019-05-15T05:44:42.543Z,69.50
2019-05-15T05:47:10.595Z,69.46
2019-05-15T05:49:40.219Z,69.50
2019-05-15T05:52:09.851Z,69.64
2019-05-15T05:54:39.594Z,69.58
2019-05-15T05:57:09.244Z,69.70
2019-05-15T05:59:38.871Z,69.81
2019-05-15T06:02:08.896Z,69.78
2019-05-15T06:04:38.613Z,69.74
2019-05-15T06:07:14.353Z,69.89
2019-05-15T06:09:44.308Z,70.22
2019-05-15T06:12:14.022Z,70.32
2019-05-15T06:14:45.783Z,70.25
2019-05-15T06:17:15.463Z,70.31
2019-05-15T06:19:45.061Z,70.25
2019-05-15T06:22:15.056Z,70.27
2019-05-15T06:24:44.838Z,70.25
2019-05-15T06:27:14.479Z,70.24
2019-05-15T06:29:44.466Z,70.39
2019-05-15T06:32:14.161Z,70.29
2019-05-15T06:34:44.320Z,70.10
2019-05-15T06:37:14.045Z,70.11
2019-05-15T06:39:43.731Z,70.07
2019-05-15T06:42:13.341Z,70.78
2019-05-15T06:44:42.980Z,70.74
2019-05-15T06:47:12.805Z,70.06
2019-05-15T06:49:44.170Z,70.27
2019-05-15T06:52:13.968Z,69.96
2019-05-15T06:54:45.765Z,69.73
2019-05-15T06:57:18.220Z,69.42
2019-05-15T06:59:49.120Z,69.26
2019-05-15T07:02:20.400Z,69.06
2019-05-15T07:04:54.086Z,69.14
2019-05-15T07:07:24.152Z,69.43
2019-05-15T07:09:54.096Z,69.20
2019-05-15T07:12:23.806Z,69.10
2019-05-15T07:14:54.127Z,68.97
2019-05-15T07:17:24.935Z,68.78
2019-05-15T07:19:54.619Z,68.44
2019-05-15T07:22:28.918Z,68.33
2019-05-15T07:24:59.722Z,68.00
2019-05-15T07:27:33.419Z,67.68
2019-05-15T07:30:07.659Z,67.68
2019-05-15T07:32:39.609Z,67.58
2019-05-15T07:35:13.916Z,67.87
2019-05-15T07:37:43.667Z,67.47
2019-05-15T07:40:15.668Z,67.45
2019-05-15T07:42:49.105Z,67.21
2019-05-15T07:45:22.895Z,67.41
2019-05-15T07:48:00.832Z,67.10
2019-05-15T07:50:34.537Z,67.11
2019-05-15T07:53:08.940Z,66.87
2019-05-15T07:55:39.496Z,66.38
2019-05-15T07:58:14.465Z,66.66
2019-05-15T08:00:44.184Z,66.38
2019-05-15T08:03:18.219Z,66.28
2019-05-15T08:05:56.118Z,66.21
2019-05-15T08:08:22.486Z,66.41
2019-05-15T08:10:52.195Z,66.57
2019-05-15T08:13:23.526Z,66.43
2019-05-15T08:15:58.046Z,66.38
2019-05-15T08:18:30.924Z,65.95
2019-05-15T08:21:04.283Z,65.57
2019-05-15T08:23:34.413Z,65.84
2019-05-15T08:26:08.748Z,65.67
2019-05-15T08:28:38.466Z,65.40
2019-05-15T08:31:10.289Z,65.72
2019-05-15T08:33:40.287Z,65.59
2019-05-15T08:36:12.174Z,65.48
2019-05-15T08:38:44.974Z,65.43
2019-05-15T08:41:18.337Z,65.77
2019-05-15T08:43:48.895Z,65.45
2019-05-15T08:46:18.869Z,65.35
2019-05-15T08:48:49.743Z,65.07
2019-05-15T08:51:21.975Z,64.99
2019-05-15T08:53:52.786Z,64.77
2019-05-15T08:56:22.415Z,64.76
2019-05-15T08:58:53.383Z,64.92
2019-05-15T09:01:23.119Z,64.76
2019-05-15T09:03:58.208Z,64.64
2019-05-15T09:06:32.043Z,64.57
2019-05-15T09:09:02.330Z,64.48
2019-05-15T09:11:32.052Z,64.59
2019-05-15T09:14:02.357Z,64.21
2019-05-15T09:16:34.688Z,64.22
2019-05-15T09:19:10.370Z,64.34
2019-05-15T09:21:48.820Z,64.31
2019-05-15T09:24:19.912Z,64.16
2019-05-15T09:26:51.413Z,64.07
2019-05-15T09:29:22.612Z,63.94
2019-05-15T09:31:53.577Z,64.03
2019-05-15T09:34:23.915Z,64.07
2019-05-15T09:36:53.515Z,63.91
2019-05-15T09:39:25.156Z,63.81
2019-05-15T09:41:54.790Z,63.56
2019-05-15T09:44:24.702Z,63.35
2019-05-15T09:46:58.451Z,63.17
2019-05-15T09:49:31.765Z,63.08
2019-05-15T09:52:03.016Z,63.07
2019-05-15T09:54:34.261Z,62.90
2019-05-15T09:57:10.799Z,62.69
2019-05-15T09:59:39.769Z,62.76
2019-05-15T10:02:13.186Z,62.72
2019-05-15T10:04:44.214Z,62.62
2019-05-15T10:07:13.930Z,62.67
2019-05-15T10:09:43.689Z,62.52
2019-05-15T10:12:15.133Z,62.42
2019-05-15T10:14:49.214Z,62.27
2019-05-15T10:17:20.900Z,62.32
2019-05-15T10:19:50.670Z,61.89
2019-05-15T10:22:21.396Z,61.94
2019-05-15T10:24:53.095Z,61.70
2019-05-15T10:27:22.897Z,61.84
2019-05-15T10:29:55.522Z,61.25
2019-05-15T10:32:25.219Z,61.03
2019-05-15T10:34:58.579Z,60.94
2019-05-15T10:37:30.619Z,60.66
2019-05-15T10:40:01.008Z,60.55
2019-05-15T10:42:31.072Z,60.66
2019-05-15T10:45:02.397Z,60.47
2019-05-15T10:47:32.084Z,60.23
2019-05-15T10:50:01.704Z,60.14
2019-05-15T10:52:32.111Z,59.32
2019-05-15T10:55:01.807Z,58.80
2019-05-15T10:57:33.115Z,58.75
2019-05-15T11:00:04.845Z,59.04
2019-05-15T11:02:34.710Z,58.21
2019-05-15T11:05:10.813Z,57.92
2019-05-15T11:07:40.743Z,57.24
2019-05-15T11:10:11.390Z,57.07
2019-05-15T11:12:41.326Z,56.90
2019-05-15T11:15:11.975Z,56.64
2019-05-15T11:17:41.586Z,56.50
2019-05-15T11:20:12.055Z,56.30
2019-05-15T11:22:42.907Z,56.40
2019-05-15T11:25:13.689Z,56.28
2019-05-15T11:27:48.380Z,56.26
2019-05-15T11:30:19.373Z,56.71
2019-05-15T11:32:49.067Z,56.57
2019-05-15T11:35:19.530Z,56.59
2019-05-15T11:37:56.428Z,57.05
2019-05-15T11:40:21.678Z,56.73
2019-05-15T11:42:51.367Z,56.31
2019-05-15T11:45:21.262Z,56.78
2019-05-15T11:47:50.970Z,57.48
2019-05-15T11:50:21.086Z,56.74
2019-05-15T11:52:53.033Z,56.45
2019-05-15T11:55:22.886Z,56.39
2019-05-15T11:57:55.751Z,56.32
2019-05-15T12:00:26.981Z,56.40
2019-05-15T12:02:58.394Z,55.86
2019-05-15T12:05:28.811Z,55.85
2019-05-15T12:08:00.231Z,55.93
2019-05-15T12:10:31.195Z,55.62
2019-05-15T12:13:02.626Z,55.58
2019-05-15T12:15:35.316Z,55.70
2019-05-15T12:18:05.211Z,55.47
2019-05-15T12:20:34.891Z,55.43
2019-05-15T12:23:09.047Z,55.43
2019-05-15T12:25:39.335Z,55.60
2019-05-15T12:28:10.175Z,55.43
2019-05-15T12:30:40.568Z,54.94
2019-05-15T12:33:12.867Z,54.57
2019-05-15T12:35:43.748Z,54.18
2019-05-15T12:38:14.208Z,54.16
2019-05-15T13:01:12.719Z,52.42
2019-05-15T13:03:34.889Z,51.86
2019-05-15T13:06:04.501Z,51.03
2019-05-15T13:08:34.188Z,50.61
2019-05-15T13:11:10.205Z,49.72
2019-05-15T13:13:39.484Z,49.21
2019-05-15T13:16:10.644Z,48.96
2019-05-15T13:18:41.596Z,48.58
2019-05-15T13:21:11.223Z,47.73
2019-05-15T13:23:40.903Z,47.04
2019-05-15T13:26:23.081Z,46.52
2019-05-15T13:28:44.026Z,46.84
2019-05-15T13:31:13.751Z,47.17
2019-05-15T13:33:45.162Z,47.31
2019-05-15T13:36:16.367Z,47.81
2019-05-15T13:38:48.137Z,47.87
2019-05-15T13:41:19.054Z,47.95
2019-05-15T13:43:49.438Z,47.97
2019-05-15T13:46:20.618Z,47.82
2019-05-15T13:48:50.581Z,47.81
2019-05-15T13:51:20.276Z,47.69
2019-05-15T13:53:50.022Z,47.24
2019-05-15T13:56:19.932Z,46.96
2019-05-15T13:58:49.751Z,47.25
2019-05-15T14:01:19.800Z,47.17
2019-05-15T14:03:49.474Z,47.41
2019-05-15T14:06:21.067Z,47.82
2019-05-15T14:08:50.779Z,48.23
2019-05-15T14:11:21.900Z,48.36
2019-05-15T14:13:51.873Z,48.95
2019-05-15T14:16:21.498Z,49.16
2019-05-15T14:18:51.332Z,49.58
2019-05-15T14:21:20.999Z,49.78
2019-05-15T14:23:50.709Z,49.78
2019-05-15T14:26:23.977Z,49.81
2019-05-15T14:28:52.135Z,49.27
2019-05-15T14:31:21.753Z,49.12
2019-05-15T14:33:51.436Z,49.18
2019-05-15T14:36:21.200Z,49.49
2019-05-15T14:38:52.341Z,49.64
2019-05-15T14:41:22.373Z,49.59
2019-05-15T14:43:52.105Z,49.67
2019-05-15T14:46:21.810Z,49.82
2019-05-15T14:48:51.611Z,49.95
2019-05-15T14:51:23.141Z,50.18
2019-05-15T14:53:52.899Z,50.39
2019-05-15T14:56:22.834Z,50.57
2019-05-15T14:58:52.527Z,50.95
2019-05-15T15:01:23.293Z,51.07
2019-05-15T15:03:53.046Z,51.57
2019-05-15T15:06:23.651Z,51.83
2019-05-15T15:08:53.722Z,51.85
2019-05-15T15:11:25.098Z,51.83
2019-05-15T15:13:55.087Z,51.80
2019-05-15T15:16:24.714Z,51.89
2019-05-15T15:18:55.376Z,52.24
2019-05-15T15:21:25.072Z,52.63
2019-05-15T15:23:58.757Z,53.09
2019-05-15T15:26:32.623Z,53.16
2019-05-15T15:29:08.468Z,53.39
2019-05-15T15:31:50.860Z,53.58
2019-05-15T15:34:23.407Z,53.79
2019-05-15T15:37:00.852Z,53.96
2019-05-15T15:39:33.221Z,54.14
2019-05-15T15:42:11.637Z,54.41
2019-05-15T15:44:48.826Z,54.71
2019-05-15T15:47:28.179Z,54.64
2019-05-15T15:50:09.539Z,55.13
2019-05-15T15:52:49.047Z,55.00
2019-05-15T15:55:24.248Z,55.27
2019-05-15T15:58:00.685Z,55.68
2019-05-15T16:00:35.115Z,56.05
2019-05-15T16:03:09.144Z,56.33
2019-05-15T16:05:44.194Z,56.50
2019-05-15T16:08:51.560Z,56.86
2019-05-15T16:11:15.747Z,57.17
2019-05-15T16:13:58.565Z,57.40
2019-05-15T16:16:32.203Z,57.74
2019-05-15T16:19:05.413Z,58.31
2019-05-15T16:21:39.819Z,58.33
2019-05-15T16:24:17.808Z,58.15
2019-05-15T16:26:52.378Z,58.34
2019-05-15T16:29:28.219Z,58.68
2019-05-15T16:32:08.735Z,58.90
2019-05-15T16:34:53.099Z,58.98
2019-05-15T16:37:34.979Z,58.97
2019-05-15T16:40:18.341Z,59.09
2019-05-15T16:42:52.425Z,59.34
2019-05-15T16:45:30.095Z,59.40
2019-05-15T16:48:02.964Z,59.45
2019-05-15T16:50:38.356Z,59.67
2019-05-15T16:53:18.215Z,59.56
2019-05-15T16:56:00.005Z,59.65
2019-05-15T16:58:39.448Z,59.65
2019-05-15T17:01:10.647Z,59.59
2019-05-15T17:03:40.371Z,59.34
2019-05-15T17:06:10.079Z,59.34
2019-05-15T17:08:39.925Z,59.25
2019-05-15T17:11:09.559Z,59.35
2019-05-15T17:13:42.902Z,59.43
2019-05-15T17:16:12.603Z,59.47
2019-05-15T17:18:42.302Z,59.57
2019-05-15T17:21:12.234Z,59.95
2019-05-15T17:23:42.258Z,60.27
2019-05-15T17:26:11.950Z,59.97
2019-05-15T17:28:41.657Z,59.94
2019-05-15T17:31:11.333Z,60.06
2019-05-15T17:33:43.132Z,60.15
2019-05-15T17:36:12.782Z,60.48
2019-05-15T17:38:42.479Z,60.95
2019-05-15T17:41:12.155Z,61.30
2019-05-15T17:43:41.779Z,61.54
2019-05-15T17:46:11.450Z,61.21
2019-05-15T17:48:41.102Z,61.33
2019-05-15T17:51:10.734Z,61.69
2019-05-15T17:53:40.580Z,61.96
2019-05-15T17:56:10.216Z,62.23
2019-05-15T17:58:39.839Z,62.74
2019-05-15T18:01:09.545Z,62.98
2019-05-15T18:03:39.459Z,63.38
2019-05-15T18:06:09.229Z,63.51
2019-05-15T18:08:39.257Z,63.51
2019-05-15T18:11:08.948Z,63.49
2019-05-15T18:13:38.578Z,63.76
2019-05-15T18:16:13.269Z,64.00
2019-05-15T18:18:39.763Z,64.21
2019-05-15T18:21:10.332Z,64.42
2019-05-15T18:23:40.205Z,64.54
2019-05-15T18:26:09.841Z,64.62
2019-05-15T18:28:39.468Z,64.74
2019-05-15T18:31:09.251Z,64.84
2019-05-15T18:33:52.808Z,65.07
2019-05-15T18:36:11.016Z,65.27
2019-05-15T18:38:41.109Z,65.43
2019-05-15T18:41:11.213Z,65.60
2019-05-15T18:43:40.850Z,65.86
2019-05-15T18:46:10.586Z,66.05
2019-05-15T18:48:40.215Z,66.29
2019-05-15T18:51:09.999Z,66.40
2019-05-15T18:53:40.065Z,66.72
2019-05-15T18:56:09.770Z,66.74
2019-05-15T18:58:39.456Z,66.78
2019-05-15T19:01:09.560Z,66.86
2019-05-15T19:03:39.570Z,67.18
2019-05-15T19:06:09.178Z,67.26
2019-05-15T19:08:38.930Z,67.37
2019-05-15T19:11:08.639Z,67.47
2019-05-15T19:13:39.041Z,67.34
2019-05-15T19:16:09.463Z,67.20
2019-05-15T19:18:39.153Z,67.29
2019-05-15T19:21:08.851Z,67.28
2019-05-15T19:23:40.340Z,67.38
2019-05-15T19:26:11.815Z,67.63
2019-05-15T19:28:41.694Z,67.79
2019-05-15T19:31:23.267Z,68.12
2019-05-15T19:33:42.719Z,68.22
2019-05-15T19:36:13.268Z,68.05
2019-05-15T19:38:42.940Z,67.72
2019-05-15T19:41:12.794Z,67.84
2019-05-15T19:43:42.991Z,68.00
2019-05-15T19:46:14.509Z,67.95
2019-05-15T19:48:44.171Z,68.50
2019-05-15T19:51:18.151Z,68.61
2019-05-15T19:53:47.881Z,68.59
2019-05-15T19:56:18.825Z,68.80
2019-05-15T19:58:48.905Z,68.71
2019-05-15T20:01:18.954Z,68.94
2019-05-15T20:03:52.892Z,69.25
2019-05-15T20:06:20.116Z,69.37
2019-05-15T20:08:49.788Z,69.21
2019-05-15T20:11:19.419Z,69.42
2019-05-15T20:13:49.898Z,69.32
2019-05-15T20:16:21.455Z,69.23
2019-05-15T20:18:51.182Z,69.41
2019-05-15T20:21:20.903Z,69.47
2019-05-15T20:23:50.624Z,69.64
2019-05-15T20:26:20.707Z,69.68
2019-05-15T20:28:51.967Z,69.61
2019-05-15T20:31:21.797Z,69.52
2019-05-15T20:34:02.583Z,69.88
2019-05-15T20:36:23.121Z,70.11
2019-05-15T20:38:52.799Z,69.92
2019-05-15T20:41:25.533Z,70.12
2019-05-15T20:43:55.163Z,70.08
2019-05-15T20:46:24.875Z,70.03
2019-05-15T20:48:54.493Z,69.98
2019-05-15T20:51:24.106Z,70.02
2019-05-15T20:53:53.998Z,69.99
2019-05-15T20:56:23.910Z,70.16
2019-05-15T20:58:53.553Z,70.22
2019-05-15T21:01:23.214Z,70.15
2019-05-15T21:03:53.540Z,70.09
2019-05-15T21:06:23.162Z,70.21
2019-05-15T21:08:52.841Z,70.18
2019-05-15T21:11:22.465Z,70.04
2019-05-15T21:13:52.173Z,69.92
2019-05-15T21:16:22.238Z,69.96
2019-05-15T21:18:51.842Z,70.06
2019-05-15T21:21:21.468Z,70.29
2019-05-15T21:23:51.131Z,70.30
2019-05-15T21:26:20.862Z,70.45
2019-05-15T21:28:51.225Z,70.71
2019-05-15T21:31:22.081Z,70.98
2019-05-15T21:33:51.999Z,71.11
2019-05-15T21:36:21.813Z,71.30
2019-05-15T21:38:53.197Z,71.14
2019-05-15T21:41:24.675Z,71.41
2019-05-15T21:43:59.293Z,71.50
2019-05-15T21:46:28.504Z,71.46
2019-05-15T21:49:00.891Z,71.46
2019-05-15T21:51:30.295Z,71.53
2019-05-15T21:54:01.280Z,71.74
2019-05-15T21:56:31.368Z,71.82
2019-05-15T21:59:01.310Z,71.83
2019-05-15T22:01:32.864Z,71.81
2019-05-15T22:04:02.891Z,71.76
2019-05-15T22:06:33.075Z,71.87
2019-05-15T22:09:03.719Z,72.02
2019-05-15T22:11:34.283Z,72.08
2019-05-15T22:14:05.059Z,72.12
2019-05-15T22:16:35.019Z,72.11
2019-05-15T22:19:04.783Z,71.92
2019-05-15T22:21:34.743Z,71.93
2019-05-15T22:24:04.866Z,71.73
2019-05-15T22:26:35.163Z,71.89
2019-05-15T22:29:04.728Z,71.82
2019-05-15T22:31:34.784Z,71.92
2019-05-15T22:34:04.412Z,72.09
2019-05-15T22:36:34.305Z,72.11
2019-05-15T22:39:05.633Z,72.15
2019-05-15T22:41:35.257Z,71.97
2019-05-15T22:44:05.015Z,71.76
2019-05-15T22:46:38.170Z,71.65
2019-05-15T22:49:07.794Z,71.60
2019-05-15T22:51:38.292Z,71.55
2019-05-15T22:54:08.649Z,71.65
2019-05-15T22:56:38.363Z,71.68
2019-05-15T22:59:08.565Z,71.60
2019-05-15T23:01:39.826Z,71.61
2019-05-15T23:04:09.440Z,71.46
2019-05-15T23:06:39.145Z,71.50
2019-05-15T23:09:09.385Z,71.54
2019-05-15T23:11:39.515Z,71.82
2019-05-15T23:14:09.358Z,71.64
2019-05-15T23:16:39.597Z,71.32
2019-05-15T23:19:09.227Z,71.42
2019-05-15T23:21:40.306Z,71.54
2019-05-15T23:24:10.232Z,71.45
2019-05-15T23:26:39.843Z,71.67
2019-05-15T23:29:09.845Z,71.58
2019-05-15T23:31:39.852Z,72.23
2019-05-15T23:34:09.493Z,72.88
2019-05-15T23:36:39.095Z,73.01
2019-05-15T23:39:08.817Z,73.64
2019-05-15T23:41:38.442Z,74.12
2019-05-15T23:44:08.349Z,73.99
2019-05-15T23:46:38.427Z,74.38
2019-05-15T23:49:09.630Z,74.99
2019-05-15T23:51:39.919Z,74.86
2019-05-15T23:54:10.172Z,74.79
2019-05-15T23:56:40.035Z,74.73
2019-05-15T23:59:09.841Z,74.76
